Eastover, SC (29044)

1:34 PM EST on December 10, 2016 (GMT -0500)
McEntire Angs | | Change Station

Elev 253 ft 33.92 °N, 80.80 °W | Updated 36 minutes ago

Clear
Clear
45 °F
Feels Like 44 °F
N
4
Wind Variable Wind from NNW

Today
High -- | Low -- °F
--% Chance of Precip.
Yesterday
High -- | Low -- °F
Precip. -- in
Pressure 30.53 in
Visibility 10.0 miles
Clouds Clear
Windchill 44 °F
Dew Point 17 °F
Humidity 33%
Rainfall 0.00 in
Snow Depth Not available.
7:17 AM 5:14 PM
Waxing Gibbous, 85% visible
METAR KMMT 101758Z 33003KT 10SM CLR 07/M08 A3051 RMK AO2A SLP336 T00721082 10072 21028 58020 $
Pressure 30.53 in
Visibility 10.0 miles
Clouds Clear
Windchill 44 °F
Dew Point 17 °F
Humidity 33%
Rainfall 0.00 in
Snow Depth Not available.
7:17 AM 5:14 PM
Waxing Gibbous, 85% visible
METAR KMMT 101758Z 33003KT 10SM CLR 07/M08 A3051 RMK AO2A SLP336 T00721082 10072 21028 58020 $

10-Day Weather Forecast

Almanac

Astronomy

Dec. 10, 2016 Rise Set
Actual Time
Civil Twilight
Nautical Twilight
Astronomical Twilight
Moon
Length of Visible Light
Length of Day
Tomorrow will be .
, % of the Moon is Illuminated

Today's Extremes

State Highs State Lows

Community

WunderPhotos

Upload Photos

1,956,619 photos uploaded!

WunderBlog® & News

Nearby

Air Quality

  Air Quality AQ Index Pollutant
Not available.

Snow Depth

Station Depth Elevation

Earthquake Activity

City Distance Mag. Time & Date
Minimum magnitude displayed is 2.5.

Coastal Water Temperatures

Place Temperature

Stations

Nearby Weather Stations

Station Location Temp. Windchill Dew Point Humidity Wind Precip. Elev Updated Type
                   

Watches & Warnings

There are currently no watches in effect.